sensor_id;sensor_type;location;lat;lon;timestamp;pressure;altitude;pressure_sealevel;temperature;humidity
33496;BME280;19836;55.812;37.560;2023-04-07T00:00:04;100504.38;;;6.30;44.43
33496;BME280;19836;55.812;37.560;2023-04-07T00:02:37;100501.72;;;6.24;44.66
33496;BME280;19836;55.812;37.560;2023-04-07T00:05:07;100497.28;;;6.23;44.67
33496;BME280;19836;55.812;37.560;2023-04-07T00:07:33;100499.94;;;6.26;44.79
33496;BME280;19836;55.812;37.560;2023-04-07T00:10:00;100494.59;;;6.35;44.64
33496;BME280;19836;55.812;37.560;2023-04-07T00:12:26;100498.16;;;6.28;44.65
33496;BME280;19836;55.812;37.560;2023-04-07T00:14:55;100501.69;;;6.27;45.14
33496;BME280;19836;55.812;37.560;2023-04-07T00:17:25;100510.59;;;6.23;44.75
33496;BME280;19836;55.812;37.560;2023-04-07T00:19:51;100504.38;;;6.18;45.10
33496;BME280;19836;55.812;37.560;2023-04-07T00:22:18;100498.16;;;6.14;44.85
33496;BME280;19836;55.812;37.560;2023-04-07T00:24:46;100499.94;;;6.14;45.21
33496;BME280;19836;55.812;37.560;2023-04-07T00:27:13;100501.72;;;6.18;45.09
33496;BME280;19836;55.812;37.560;2023-04-07T00:29:39;100494.63;;;6.16;44.98
33496;BME280;19836;55.812;37.560;2023-04-07T00:32:06;100491.09;;;6.03;45.10
33496;BME280;19836;55.812;37.560;2023-04-07T00:34:32;100494.63;;;5.99;45.14
33496;BME280;19836;55.812;37.560;2023-04-07T00:36:59;100489.31;;;5.93;45.38
33496;BME280;19836;55.812;37.560;2023-04-07T00:39:25;100491.94;;;5.96;44.97
33496;BME280;19836;55.812;37.560;2023-04-07T00:41:52;100499.94;;;5.96;45.51
33496;BME280;19836;55.812;37.560;2023-04-07T00:44:19;100488.41;;;5.93;45.05
33496;BME280;19836;55.812;37.560;2023-04-07T00:46:46;100495.50;;;5.89;45.40
33496;BME280;19836;55.812;37.560;2023-04-07T00:49:12;100501.72;;;5.85;45.13
33496;BME280;19836;55.812;37.560;2023-04-07T00:51:40;100492.84;;;5.82;45.17
33496;BME280;19836;55.812;37.560;2023-04-07T00:54:08;100491.91;;;5.75;45.40
33496;BME280;19836;55.812;37.560;2023-04-07T00:56:36;100505.25;;;5.81;45.61
33496;BME280;19836;55.812;37.560;2023-04-07T00:59:04;100498.09;;;5.77;45.41
33496;BME280;19836;55.812;37.560;2023-04-07T01:06:57;100500.78;;;5.74;45.75
33496;BME280;19836;55.812;37.560;2023-04-07T01:09:49;100497.25;;;5.81;45.84
33496;BME280;19836;55.812;37.560;2023-04-07T01:15:10;100492.81;;;5.75;45.89
33496;BME280;19836;55.812;37.560;2023-04-07T01:17:44;100502.56;;;5.75;45.90
33496;BME280;19836;55.812;37.560;2023-04-07T01:20:16;100503.44;;;5.68;45.66
33496;BME280;19836;55.812;37.560;2023-04-07T01:22:51;100515.81;;;5.60;45.94
33496;BME280;19836;55.812;37.560;2023-04-07T01:28:25;100519.34;;;5.50;45.96
33496;BME280;19836;55.812;37.560;2023-04-07T01:30:57;100513.09;;;5.42;45.74
33496;BME280;19836;55.812;37.560;2023-04-07T01:33:27;100513.97;;;5.35;45.86
33496;BME280;19836;55.812;37.560;2023-04-07T01:35:59;100508.66;;;5.32;45.88
33496;BME280;19836;55.812;37.560;2023-04-07T01:38:28;100509.56;;;5.35;45.99
33496;BME280;19836;55.812;37.560;2023-04-07T01:40:56;100506.88;;;5.28;46.22
33496;BME280;19836;55.812;37.560;2023-04-07T01:43:24;100498.91;;;5.31;46.46
33496;BME280;19836;55.812;37.560;2023-04-07T01:45:54;100505.16;;;5.39;46.33
33496;BME280;19836;55.812;37.560;2023-04-07T01:48:22;100507.78;;;5.34;46.24
33496;BME280;19836;55.812;37.560;2023-04-07T01:50:50;100509.53;;;5.20;46.54
33496;BME280;19836;55.812;37.560;2023-04-07T01:53:17;100509.50;;;5.13;46.54
33496;BME280;19836;55.812;37.560;2023-04-07T01:55:43;100508.56;;;5.05;46.66
33496;BME280;19836;55.812;37.560;2023-04-07T01:58:10;100514.75;;;5.04;46.80
33496;BME280;19836;55.812;37.560;2023-04-07T02:00:40;100512.09;;;5.02;46.76
33496;BME280;19836;55.812;37.560;2023-04-07T02:03:19;100512.09;;;4.99;46.99
33496;BME280;19836;55.812;37.560;2023-04-07T02:05:53;100516.50;;;4.99;46.99
33496;BME280;19836;55.812;37.560;2023-04-07T02:08:27;100515.63;;;4.95;46.70
33496;BME280;19836;55.812;37.560;2023-04-07T02:10:56;100523.59;;;4.95;46.98
33496;BME280;19836;55.812;37.560;2023-04-07T02:13:28;100514.72;;;4.90;46.99
33496;BME280;19836;55.812;37.560;2023-04-07T02:15:57;100510.28;;;4.88;47.26
33496;BME280;19836;55.812;37.560;2023-04-07T02:18:25;100512.03;;;4.83;47.42
33496;BME280;19836;55.812;37.560;2023-04-07T02:20:55;100521.72;;;4.82;47.38
33496;BME280;19836;55.812;37.560;2023-04-07T02:23:21;100520.88;;;4.82;47.58
33496;BME280;19836;55.812;37.560;2023-04-07T02:25:48;100515.50;;;4.76;47.50
33496;BME280;19836;55.812;37.560;2023-04-07T02:28:15;100525.28;;;4.81;47.72
33496;BME280;19836;55.812;37.560;2023-04-07T02:30:44;100527.97;;;4.89;47.50
33496;BME280;19836;55.812;37.560;2023-04-07T02:33:11;100526.19;;;4.91;47.72
33496;BME280;19836;55.812;37.560;2023-04-07T02:35:37;100526.19;;;4.91;47.40
33496;BME280;19836;55.812;37.560;2023-04-07T02:38:03;100518.19;;;4.83;47.60
33496;BME280;19836;55.812;37.560;2023-04-07T02:40:30;100517.28;;;4.80;47.60
33496;BME280;19836;55.812;37.560;2023-04-07T02:42:57;100517.31;;;4.77;47.95
33496;BME280;19836;55.812;37.560;2023-04-07T02:45:24;100514.63;;;4.74;47.86
33496;BME280;19836;55.812;37.560;2023-04-07T02:47:50;100520.84;;;4.79;47.97
33496;BME280;19836;55.812;37.560;2023-04-07T02:50:17;100524.34;;;4.75;48.02
33496;BME280;19836;55.812;37.560;2023-04-07T02:52:44;100522.59;;;4.74;48.16
33496;BME280;19836;55.812;37.560;2023-04-07T02:55:13;100521.66;;;4.67;48.20
33496;BME280;19836;55.812;37.560;2023-04-07T02:57:43;100526.97;;;4.69;48.18
33496;BME280;19836;55.812;37.560;2023-04-07T03:00:20;100529.66;;;4.72;48.34
33496;BME280;19836;55.812;37.560;2023-04-07T03:03:12;100533.16;;;4.68;48.12
33496;BME280;19836;55.812;37.560;2023-04-07T03:05:42;100537.50;;;4.58;48.50
33496;BME280;19836;55.812;37.560;2023-04-07T03:08:09;100541.91;;;4.53;48.62
33496;BME280;19836;55.812;37.560;2023-04-07T03:10:36;100535.69;;;4.50;48.55
33496;BME280;19836;55.812;37.560;2023-04-07T03:13:03;100541.88;;;4.49;48.53
33496;BME280;19836;55.812;37.560;2023-04-07T03:15:33;100538.34;;;4.50;48.68
33496;BME280;19836;55.812;37.560;2023-04-07T03:18:00;100541.88;;;4.49;48.39
33496;BME280;19836;55.812;37.560;2023-04-07T03:20:29;100539.19;;;4.41;48.88
33496;BME280;19836;55.812;37.560;2023-04-07T03:23:00;100547.13;;;4.40;48.63
33496;BME280;19836;55.812;37.560;2023-04-07T03:25:29;100543.56;;;4.35;48.93
33496;BME280;19836;55.812;37.560;2023-04-07T03:27:58;100540.00;;;4.33;48.87
33496;BME280;19836;55.812;37.560;2023-04-07T03:30:27;100535.59;;;4.32;48.86
33496;BME280;19836;55.812;37.560;2023-04-07T03:32:54;100540.03;;;4.34;49.01
33496;BME280;19836;55.812;37.560;2023-04-07T03:35:20;100545.28;;;4.30;49.03
33496;BME280;19836;55.812;37.560;2023-04-07T03:37:47;100546.19;;;4.33;49.04
33496;BME280;19836;55.812;37.560;2023-04-07T03:40:16;100548.88;;;4.38;48.82
33496;BME280;19836;55.812;37.560;2023-04-07T03:42:44;100551.56;;;4.39;49.06
33496;BME280;19836;55.812;37.560;2023-04-07T03:45:12;100555.09;;;4.40;49.04
33496;BME280;19836;55.812;37.560;2023-04-07T03:47:44;100562.16;;;4.38;48.99
33496;BME280;19836;55.812;37.560;2023-04-07T03:50:12;100557.72;;;4.38;49.22
33496;BME280;19836;55.812;37.560;2023-04-07T03:53:36;100560.50;;;4.52;49.28
33496;BME280;19836;55.812;37.560;2023-04-07T03:56:18;100550.81;;;4.57;48.82
33496;BME280;19836;55.812;37.560;2023-04-07T03:58:49;100563.19;;;4.61;48.83
33496;BME280;19836;55.812;37.560;2023-04-07T04:01:35;100557.84;;;4.56;48.92
33496;BME280;19836;55.812;37.560;2023-04-07T04:04:10;100557.88;;;4.58;48.90
33496;BME280;19836;55.812;37.560;2023-04-07T04:06:37;100562.34;;;4.66;48.68
33496;BME280;19836;55.812;37.560;2023-04-07T04:09:17;100561.50;;;4.72;48.96
33496;BME280;19836;55.812;37.560;2023-04-07T04:11:48;100559.78;;;4.80;48.49
33496;BME280;19836;55.812;37.560;2023-04-07T04:14:15;100564.19;;;4.78;48.51
33496;BME280;19836;55.812;37.560;2023-04-07T04:16:47;100573.03;;;4.77;48.67
33496;BME280;19836;55.812;37.560;2023-04-07T04:19:27;100569.50;;;4.78;48.61
33496;BME280;19836;55.812;37.560;2023-04-07T04:21:59;100575.72;;;4.83;48.71
33496;BME280;19836;55.812;37.560;2023-04-07T04:24:29;100574.00;;;4.88;48.48
33496;BME280;19836;55.812;37.560;2023-04-07T04:27:00;100568.69;;;4.91;48.25
33496;BME280;19836;55.812;37.560;2023-04-07T04:29:27;100570.44;;;4.89;48.26
33496;BME280;19836;55.812;37.560;2023-04-07T04:31:58;100574.00;;;4.91;48.51
33496;BME280;19836;55.812;37.560;2023-04-07T04:34:25;100570.47;;;4.92;48.65
33496;BME280;19836;55.812;37.560;2023-04-07T04:36:54;100579.38;;;5.01;48.68
33496;BME280;19836;55.812;37.560;2023-04-07T04:39:21;100577.63;;;5.11;48.77
33496;BME280;19836;55.812;37.560;2023-04-07T04:41:48;100575.91;;;5.13;48.34
33496;BME280;19836;55.812;37.560;2023-04-07T04:44:16;100582.13;;;5.18;48.48
33496;BME280;19836;55.812;37.560;2023-04-07T04:46:47;100583.88;;;5.19;48.70
33496;BME280;19836;55.812;37.560;2023-04-07T04:49:16;100585.69;;;5.23;48.67
33496;BME280;19836;55.812;37.560;2023-04-07T04:51:48;100589.25;;;5.26;48.75
33496;BME280;19836;55.812;37.560;2023-04-07T04:54:20;100586.59;;;5.31;48.46
33496;BME280;19836;55.812;37.560;2023-04-07T04:56:50;100585.75;;;5.36;48.12
33496;BME280;19836;55.812;37.560;2023-04-07T04:59:18;100581.34;;;5.43;48.25
33496;BME280;19836;55.812;37.560;2023-04-07T05:02:04;100588.41;;;5.47;47.98
33496;BME280;19836;55.812;37.560;2023-04-07T05:04:56;100587.53;;;5.46;47.93
33496;BME280;19836;55.812;37.560;2023-04-07T05:07:28;100592.84;;;5.45;47.80
33496;BME280;19836;55.812;37.560;2023-04-07T05:09:56;100591.97;;;5.46;47.90
33496;BME280;19836;55.812;37.560;2023-04-07T05:12:26;100586.72;;;5.58;47.81
33496;BME280;19836;55.812;37.560;2023-04-07T05:14:59;100588.53;;;5.74;47.68
33496;BME280;19836;55.812;37.560;2023-04-07T05:17:25;100590.34;;;5.90;47.86
33496;BME280;19836;55.812;37.560;2023-04-07T05:19:55;100590.38;;;5.96;47.51
33496;BME280;19836;55.812;37.560;2023-04-07T05:22:32;100593.91;;;6.01;47.54
33496;BME280;19836;55.812;37.560;2023-04-07T05:24:59;100588.63;;;6.04;47.32
33496;BME280;19836;55.812;37.560;2023-04-07T05:27:28;100593.03;;;6.05;47.04
33496;BME280;19836;55.812;37.560;2023-04-07T05:30:02;100592.16;;;6.15;47.44
33496;BME280;19836;55.812;37.560;2023-04-07T05:32:34;100590.41;;;6.23;46.94
33496;BME280;19836;55.812;37.560;2023-04-07T05:35:19;100586.88;;;6.24;46.95
33496;BME280;19836;55.812;37.560;2023-04-07T05:38:12;100597.53;;;6.33;46.90
33496;BME280;19836;55.812;37.560;2023-04-07T05:40:45;100585.09;;;6.38;46.99
33496;BME280;19836;55.812;37.560;2023-04-07T05:43:19;100595.72;;;6.47;46.72
33496;BME280;19836;55.812;37.560;2023-04-07T05:46:17;100593.06;;;6.56;46.67
33496;BME280;19836;55.812;37.560;2023-04-07T05:49:09;100598.38;;;6.63;46.49
33496;BME280;19836;55.812;37.560;2023-04-07T05:51:36;100599.28;;;6.72;46.51
33496;BME280;19836;55.812;37.560;2023-04-07T05:54:10;100601.06;;;6.76;46.18
33496;BME280;19836;55.812;37.560;2023-04-07T05:56:37;100598.38;;;6.80;46.09
33496;BME280;19836;55.812;37.560;2023-04-07T05:59:04;100593.03;;;6.84;46.05
33496;BME280;19836;55.812;37.560;2023-04-07T06:01:32;100593.91;;;6.91;45.80
33496;BME280;19836;55.812;37.560;2023-04-07T06:04:05;100594.78;;;6.94;45.69
33496;BME280;19836;55.812;37.560;2023-04-07T06:06:36;100595.66;;;7.01;45.50
33496;BME280;19836;55.812;37.560;2023-04-07T06:26:23;100602.53;;;7.62;44.54
33496;BME280;19836;55.812;37.560;2023-04-07T06:29:12;100590.97;;;7.68;44.13
33496;BME280;19836;55.812;37.560;2023-04-07T06:31:43;100594.50;;;7.71;44.28
33496;BME280;19836;55.812;37.560;2023-04-07T06:34:14;100598.06;;;7.70;44.33
33496;BME280;19836;55.812;37.560;2023-04-07T06:36:43;100600.69;;;7.76;43.96
33496;BME280;19836;55.812;37.560;2023-04-07T06:39:11;100600.63;;;7.88;44.07
33496;BME280;19836;55.812;37.560;2023-04-07T06:41:38;100601.47;;;7.96;44.00
33496;BME280;19836;55.812;37.560;2023-04-07T06:44:11;100601.38;;;8.11;43.97
33496;BME280;19836;55.812;37.560;2023-04-07T06:46:38;100604.88;;;8.25;43.77
33496;BME280;19836;55.812;37.560;2023-04-07T06:49:06;100604.81;;;8.33;43.49
33496;BME280;19836;55.812;37.560;2023-04-07T06:51:33;100606.59;;;8.37;43.34
33496;BME280;19836;55.812;37.560;2023-04-07T06:53:59;100603.88;;;8.41;43.23
33496;BME280;19836;55.812;37.560;2023-04-07T06:56:27;100603.88;;;8.38;43.40
33496;BME280;19836;55.812;37.560;2023-04-07T06:58:53;100600.28;;;8.41;43.34
33496;BME280;19836;55.812;37.560;2023-04-07T07:01:20;100614.47;;;8.50;42.85
33496;BME280;19836;55.812;37.560;2023-04-07T07:03:47;100610.91;;;8.53;43.13
33496;BME280;19836;55.812;37.560;2023-04-07T07:06:14;100607.28;;;8.58;42.49
33496;BME280;19836;55.812;37.560;2023-04-07T07:08:43;100599.16;;;8.70;42.66
33496;BME280;19836;55.812;37.560;2023-04-07T07:11:35;100611.50;;;8.83;42.18
33496;BME280;19836;55.812;37.560;2023-04-07T07:14:02;100610.56;;;8.90;42.25
33496;BME280;19836;55.812;37.560;2023-04-07T07:16:28;100604.22;;;8.99;42.18
33496;BME280;19836;55.812;37.560;2023-04-07T07:18:54;100603.22;;;9.10;41.80
33496;BME280;19836;55.812;37.560;2023-04-07T07:21:22;100612.91;;;9.22;41.48
33496;BME280;19836;55.812;37.560;2023-04-07T07:23:48;100606.50;;;9.35;41.72
33496;BME280;19836;55.812;37.560;2023-04-07T07:26:16;100606.41;;;9.44;41.56
33496;BME280;19836;55.812;37.560;2023-04-07T07:28:44;100611.63;;;9.54;41.63
33496;BME280;19836;55.812;37.560;2023-04-07T07:31:11;100604.38;;;9.62;41.14
33496;BME280;19836;55.812;37.560;2023-04-07T07:33:47;100592.66;;;9.72;41.42
33496;BME280;19836;55.812;37.560;2023-04-07T07:36:30;100602.44;;;9.73;41.01
33496;BME280;19836;55.812;37.560;2023-04-07T07:39:47;100607.84;;;9.72;40.61
33496;BME280;19836;55.812;37.560;2023-04-07T07:42:15;100592.56;;;9.80;40.45
33496;BME280;19836;55.812;37.560;2023-04-07T07:44:47;100595.94;;;9.94;40.12
33496;BME280;19836;55.812;37.560;2023-04-07T07:47:40;100602.09;;;10.00;39.85
33496;BME280;19836;55.812;37.560;2023-04-07T07:50:08;100602.84;;;10.11;39.87
33496;BME280;19836;55.812;37.560;2023-04-07T07:52:36;100599.03;;;10.27;40.03
33496;BME280;19836;55.812;37.560;2023-04-07T07:55:05;100598.81;;;10.41;39.55
33496;BME280;19836;55.812;37.560;2023-04-07T07:57:44;100596.25;;;10.33;38.40
33496;BME280;19836;55.812;37.560;2023-04-07T08:00:12;100600.69;;;10.34;38.87
33496;BME280;19836;55.812;37.560;2023-04-07T08:02:42;100596.88;;;10.50;38.69
33496;BME280;19836;55.812;37.560;2023-04-07T08:05:08;100595.03;;;10.54;38.52
33496;BME280;19836;55.812;37.560;2023-04-07T08:07:46;100593.00;;;10.68;38.18
33496;BME280;19836;55.812;37.560;2023-04-07T08:10:39;100587.41;;;10.81;38.02
33496;BME280;19836;55.812;37.560;2023-04-07T08:13:18;100590.00;;;10.84;37.68
33496;BME280;19836;55.812;37.560;2023-04-07T08:16:05;100579.28;;;10.84;36.82
33496;BME280;19836;55.812;37.560;2023-04-07T08:18:33;100591.69;;;10.93;37.24
33496;BME280;19836;55.812;37.560;2023-04-07T08:21:09;100588.75;;;11.05;37.09
33496;BME280;19836;55.812;37.560;2023-04-07T08:24:01;100579.59;;;11.16;36.75
33496;BME280;19836;55.812;37.560;2023-04-07T08:26:33;100580.44;;;11.18;36.37
33496;BME280;19836;55.812;37.560;2023-04-07T08:29:17;100581.38;;;11.17;35.70
33496;BME280;19836;55.812;37.560;2023-04-07T08:31:47;100580.28;;;11.26;35.79
33496;BME280;19836;55.812;37.560;2023-04-07T08:34:42;100573.06;;;11.29;35.58
33496;BME280;19836;55.812;37.560;2023-04-07T08:40:29;100576.38;;;11.42;35.20
33496;BME280;19836;55.812;37.560;2023-04-07T08:43:00;100569.06;;;11.50;35.00
33496;BME280;19836;55.812;37.560;2023-04-07T08:45:35;100573.34;;;11.61;35.37
33496;BME280;19836;55.812;37.560;2023-04-07T08:48:30;100568.75;;;11.66;35.00
33496;BME280;19836;55.812;37.560;2023-04-07T08:51:22;100571.53;;;11.62;34.62
33496;BME280;19836;55.812;37.560;2023-04-07T08:54:02;100578.56;;;11.67;34.44
33496;BME280;19836;55.812;37.560;2023-04-07T08:56:41;100576.53;;;11.78;34.66
33496;BME280;19836;55.812;37.560;2023-04-07T08:59:29;100580.78;;;11.88;34.39
33496;BME280;19836;55.812;37.560;2023-04-07T09:01:59;100580.59;;;11.97;34.22
33496;BME280;19836;55.812;37.560;2023-04-07T09:04:43;100576.78;;;12.07;33.67
33496;BME280;19836;55.812;37.560;2023-04-07T09:07:16;100570.31;;;12.16;34.09
33496;BME280;19836;55.812;37.560;2023-04-07T09:09:59;100574.75;;;12.17;33.57
33496;BME280;19836;55.812;37.560;2023-04-07T09:12:30;100562.06;;;12.23;33.67
33496;BME280;19836;55.812;37.560;2023-04-07T09:15:36;100569.75;;;12.38;33.19
33496;BME280;19836;55.812;37.560;2023-04-07T09:19:15;100550.63;;;13.49;32.83
33496;BME280;19836;55.812;37.560;2023-04-07T09:29:48;100552.63;;;18.98;26.27
33496;BME280;19836;55.812;37.560;2023-04-07T09:32:34;100550.78;;;19.82;25.43
33496;BME280;19836;55.812;37.560;2023-04-07T09:35:01;100547.63;;;20.84;24.78
33496;BME280;19836;55.812;37.560;2023-04-07T09:37:27;100545.09;;;21.98;23.75
33496;BME280;19836;55.812;37.560;2023-04-07T09:39:53;100545.63;;;22.85;22.68
33496;BME280;19836;55.812;37.560;2023-04-07T09:42:20;100534.66;;;23.88;21.93
33496;BME280;19836;55.812;37.560;2023-04-07T09:44:46;100534.50;;;24.40;20.67
33496;BME280;19836;55.812;37.560;2023-04-07T09:47:12;100539.81;;;25.13;20.21
33496;BME280;19836;55.812;37.560;2023-04-07T09:49:51;100536.28;;;25.80;19.26
33496;BME280;19836;55.812;37.560;2023-04-07T09:52:20;100536.06;;;25.72;18.85
33496;BME280;19836;55.812;37.560;2023-04-07T09:54:47;100533.28;;;25.61;18.52
33496;BME280;19836;55.812;37.560;2023-04-07T09:57:13;100532.06;;;25.76;18.58
33496;BME280;19836;55.812;37.560;2023-04-07T09:59:41;100536.00;;;25.50;18.00
33496;BME280;19836;55.812;37.560;2023-04-07T10:02:10;100539.97;;;25.35;18.05
33496;BME280;19836;55.812;37.560;2023-04-07T10:04:37;100540.06;;;25.34;18.05
33496;BME280;19836;55.812;37.560;2023-04-07T10:07:05;100543.94;;;25.31;17.65
33496;BME280;19836;55.812;37.560;2023-04-07T10:09:31;100533.53;;;25.80;17.66
33496;BME280;19836;55.812;37.560;2023-04-07T10:11:58;100544.34;;;26.38;17.18
33496;BME280;19836;55.812;37.560;2023-04-07T10:14:27;100542.59;;;26.48;16.89
33496;BME280;19836;55.812;37.560;2023-04-07T10:16:55;100545.00;;;27.06;16.98
33496;BME280;19836;55.812;37.560;2023-04-07T10:19:23;100538.22;;;26.57;16.03
33496;BME280;19836;55.812;37.560;2023-04-07T10:21:53;100531.72;;;26.58;16.45
33496;BME280;19836;55.812;37.560;2023-04-07T10:27:08;100538.97;;;26.26;16.10
33496;BME280;19836;55.812;37.560;2023-04-07T10:29:39;100527.13;;;25.92;16.13
33496;BME280;19836;55.812;37.560;2023-04-07T10:32:06;100531.06;;;25.66;16.61
33496;BME280;19836;55.812;37.560;2023-04-07T10:34:59;100533.88;;;26.32;16.51
33496;BME280;19836;55.812;37.560;2023-04-07T10:37:26;100531.28;;;25.63;16.30
33496;BME280;19836;55.812;37.560;2023-04-07T10:42:43;100525.81;;;25.74;16.77
33496;BME280;19836;55.812;37.560;2023-04-07T10:45:10;100534.69;;;25.09;16.76
33496;BME280;19836;55.812;37.560;2023-04-07T10:50:24;100542.22;;;24.22;17.33
33496;BME280;19836;55.812;37.560;2023-04-07T10:53:13;100547.72;;;24.94;17.36
33496;BME280;19836;55.812;37.560;2023-04-07T10:55:41;100545.84;;;25.18;17.08
33496;BME280;19836;55.812;37.560;2023-04-07T11:01:15;100543.22;;;24.93;17.02
33496;BME280;19836;55.812;37.560;2023-04-07T11:03:30;100542.75;;;25.57;16.69
33496;BME280;19836;55.812;37.560;2023-04-07T11:06:10;100541.72;;;25.93;16.59
33496;BME280;19836;55.812;37.560;2023-04-07T11:08:38;100534.97;;;26.74;16.42
33496;BME280;19836;55.812;37.560;2023-04-07T11:11:06;100543.59;;;26.03;15.98
33496;BME280;19836;55.812;37.560;2023-04-07T11:13:49;100528.81;;;25.71;15.95
33496;BME280;19836;55.812;37.560;2023-04-07T11:16:17;100529.06;;;25.79;16.12
33496;BME280;19836;55.812;37.560;2023-04-07T11:18:45;100524.94;;;25.74;16.08
33496;BME280;19836;55.812;37.560;2023-04-07T11:21:17;100533.28;;;25.50;15.88
33496;BME280;19836;55.812;37.560;2023-04-07T11:23:45;100531.50;;;26.06;16.01
33496;BME280;19836;55.812;37.560;2023-04-07T11:26:14;100522.88;;;26.32;15.72
33496;BME280;19836;55.812;37.560;2023-04-07T11:28:54;100530.06;;;25.78;15.65
33496;BME280;19836;55.812;37.560;2023-04-07T11:31:26;100529.75;;;26.05;15.71
33496;BME280;19836;55.812;37.560;2023-04-07T11:33:58;100523.84;;;25.76;15.68
33496;BME280;19836;55.812;37.560;2023-04-07T11:36:29;100524.75;;;25.42;15.90
33496;BME280;19836;55.812;37.560;2023-04-07T11:38:57;100520.25;;;25.41;16.14
33496;BME280;19836;55.812;37.560;2023-04-07T11:41:25;100522.31;;;25.03;16.07
33496;BME280;19836;55.812;37.560;2023-04-07T11:44:09;100531.59;;;24.30;16.29
33496;BME280;19836;55.812;37.560;2023-04-07T11:46:36;100516.94;;;23.81;16.81
33496;BME280;19836;55.812;37.560;2023-04-07T11:49:12;100518.69;;;23.57;17.14
33496;BME280;19836;55.812;37.560;2023-04-07T11:51:39;100524.59;;;23.39;17.45
33496;BME280;19836;55.812;37.560;2023-04-07T11:54:06;100515.41;;;23.77;17.33
33496;BME280;19836;55.812;37.560;2023-04-07T11:56:41;100522.63;;;24.03;17.24
33496;BME280;19836;55.812;37.560;2023-04-07T11:59:08;100507.09;;;24.04;16.93
33496;BME280;19836;55.812;37.560;2023-04-07T12:01:39;100520.56;;;23.94;17.10
33496;BME280;19836;55.812;37.560;2023-04-07T12:04:11;100519.78;;;24.53;16.76
33496;BME280;19836;55.812;37.560;2023-04-07T12:06:38;100507.75;;;25.03;16.62
33496;BME280;19836;55.812;37.560;2023-04-07T12:09:52;100512.75;;;25.32;16.24
33496;BME280;19836;55.812;37.560;2023-04-07T12:11:54;100515.31;;;25.68;16.14
33496;BME280;19836;55.812;37.560;2023-04-07T12:14:20;100510.56;;;25.59;16.05
33496;BME280;19836;55.812;37.560;2023-04-07T12:16:47;100514.72;;;25.87;16.22
33496;BME280;19836;55.812;37.560;2023-04-07T12:19:12;100510.41;;;26.06;15.55
33496;BME280;19836;55.812;37.560;2023-04-07T12:21:38;100507.91;;;25.47;15.83
33496;BME280;19836;55.812;37.560;2023-04-07T12:24:04;100506.78;;;25.49;15.77
33496;BME280;19836;55.812;37.560;2023-04-07T12:26:31;100512.78;;;25.54;15.86
33496;BME280;19836;55.812;37.560;2023-04-07T12:28:57;100512.78;;;24.85;15.82
33496;BME280;19836;55.812;37.560;2023-04-07T12:31:32;100515.16;;;24.30;16.44
33496;BME280;19836;55.812;37.560;2023-04-07T12:33:59;100516.97;;;24.42;16.28
33496;BME280;19836;55.812;37.560;2023-04-07T12:36:25;100516.91;;;24.31;16.37
33496;BME280;19836;55.812;37.560;2023-04-07T12:38:53;100511.00;;;25.31;16.10
33496;BME280;19836;55.812;37.560;2023-04-07T12:41:19;100510.13;;;26.20;15.69
33496;BME280;19836;55.812;37.560;2023-04-07T12:43:45;100514.84;;;26.40;15.25
33496;BME280;19836;55.812;37.560;2023-04-07T12:46:11;100513.03;;;26.19;15.22
33496;BME280;19836;55.812;37.560;2023-04-07T12:48:37;100509.81;;;25.68;15.08
33496;BME280;19836;55.812;37.560;2023-04-07T12:51:03;100514.38;;;25.11;15.51
33496;BME280;19836;55.812;37.560;2023-04-07T12:53:30;100518.78;;;23.81;15.94
33496;BME280;19836;55.812;37.560;2023-04-07T12:55:55;100508.81;;;23.03;16.79
33496;BME280;19836;55.812;37.560;2023-04-07T12:58:23;100511.41;;;23.19;16.96
33496;BME280;19836;55.812;37.560;2023-04-07T13:00:50;100516.06;;;23.93;16.88
33496;BME280;19836;55.812;37.560;2023-04-07T13:03:15;100506.41;;;24.61;16.41
33496;BME280;19836;55.812;37.560;2023-04-07T13:05:41;100519.22;;;24.61;16.31
33496;BME280;19836;55.812;37.560;2023-04-07T13:08:08;100507.53;;;24.10;16.39
33496;BME280;19836;55.812;37.560;2023-04-07T13:10:34;100511.03;;;23.75;16.61
33496;BME280;19836;55.812;37.560;2023-04-07T13:13:00;100514.16;;;24.31;16.41
33496;BME280;19836;55.812;37.560;2023-04-07T13:15:26;100509.84;;;24.76;16.14
33496;BME280;19836;55.812;37.560;2023-04-07T13:17:53;100512.41;;;24.90;16.03
33496;BME280;19836;55.812;37.560;2023-04-07T13:20:20;100504.03;;;25.49;15.65
33496;BME280;19836;55.812;37.560;2023-04-07T13:22:46;100504.59;;;25.76;15.30
33496;BME280;19836;55.812;37.560;2023-04-07T13:25:13;100504.88;;;25.95;15.18
33496;BME280;19836;55.812;37.560;2023-04-07T13:27:39;100500.38;;;25.94;14.94
33496;BME280;19836;55.812;37.560;2023-04-07T13:30:05;100504.72;;;25.86;14.92
33496;BME280;19836;55.812;37.560;2023-04-07T13:32:31;100497.38;;;26.30;15.00
33496;BME280;19836;55.812;37.560;2023-04-07T13:34:58;100494.34;;;26.55;15.19
33496;BME280;19836;55.812;37.560;2023-04-07T13:37:24;100497.47;;;26.51;14.88
33496;BME280;19836;55.812;37.560;2023-04-07T13:39:51;100506.38;;;26.32;14.94
33496;BME280;19836;55.812;37.560;2023-04-07T13:42:17;100500.88;;;26.10;15.02
33496;BME280;19836;55.812;37.560;2023-04-07T13:44:45;100500.09;;;25.75;15.07
33496;BME280;19836;55.812;37.560;2023-04-07T13:47:12;100510.56;;;25.59;15.10
33496;BME280;19836;55.812;37.560;2023-04-07T13:49:48;100509.13;;;25.08;15.28
33496;BME280;19836;55.812;37.560;2023-04-07T13:52:17;100509.84;;;24.40;15.80
33496;BME280;19836;55.812;37.560;2023-04-07T13:54:43;100506.44;;;23.88;16.26
33496;BME280;19836;55.812;37.560;2023-04-07T13:57:10;100505.34;;;23.40;16.69